Richard Lloyd Jones Jr Airport
KRVS : now visible

Airfield :











YOU CAN JOIN US ON...

 
LOGIN :

Register | Disclaimer

   EN    FR    IT 

 









Legend :    VFR   Marginal VFR   IFR   Intensive IFR   Very Intensive IFR
Visi :
Ceiling :
>= 8 km
>= 3000ft
5 to 8 km
1000 to 3000 ft
1500m to 5 km
500 to 1000 ft
800 to 1500m
200 to 500 ft
< 800m
< 200 ft
Symbols :   Thunderstorms  Fog  Heavy snow  Heavy precipitations  Wind > 20 kt






- Airport Elevation : 638 ft


KRVS - Richard Lloyd Jones Jr

CURRENT METAR :
  • 042053Z 12008G19KT 10SM CLR 23/02 A2998 RMK AO2 SLP162 T02280022 58034

EXPIRED METARs :
  • 041953Z 13010G20KT 10SM CLR 22/03 A3002 RMK AO2 SLP173 T02220028
  • 041853Z 14008G17KT 10SM CLR 22/03 A3005 RMK AO2 SLP186 T02170028

TAF KRVS
Valid from the 04 at 18:00 until the 05 at 18:00 UTC


041720Z 0418/0518 15011KT P6SM BKN250
FM050200 13008KT P6SM OVC100
FM050600 10006KT P6SM BKN070
TEMPO 0508/0512 4SM -SHRA BKN035
FM051200 06010KT 4SM -RA BR OVC025
KZKC FIR / North America



MET'MAP, your aeronautical weather chart ! - Copyright ORBIFLY December 2007 - Disclaimer

ORBIFLY MET'MAP TEAM :

Programming & Development : Alexandra Zaïnal
Concept & original design : Baudouin d'Aumeries
Assistance for programming : Marc-Olivier Méhu
Technical & hardware support : Manuel Goepfert

Contact : metmap@orbifly.com




SOURCES & CREDITS :

   NOAA       Earth
Advisory